createdAt,value
2023-05-15T00:01:48.111Z,0.43
2023-05-15T00:04:14.911Z,0.55
2023-05-15T00:06:41.670Z,0.50
2023-05-15T00:09:09.101Z,0.43
2023-05-15T00:11:35.837Z,0.38
2023-05-15T00:14:02.802Z,0.40
2023-05-15T00:16:29.650Z,0.50
2023-05-15T00:18:56.486Z,1.23
2023-05-15T00:21:23.318Z,0.50
2023-05-15T00:23:50.308Z,0.70
2023-05-15T00:26:17.161Z,0.50
2023-05-15T00:28:43.895Z,0.50
2023-05-15T00:31:12.570Z,0.40
2023-05-15T00:33:40.644Z,0.40
2023-05-15T00:36:07.873Z,0.77
2023-05-15T00:38:35.044Z,0.47
2023-05-15T00:41:02.644Z,0.32
2023-05-15T00:43:30.350Z,0.50
2023-05-15T00:45:59.224Z,0.40
2023-05-15T00:48:28.075Z,0.40
2023-05-15T00:50:57.561Z,0.40
2023-05-15T00:53:24.599Z,0.40
2023-05-15T00:55:53.155Z,0.40
2023-05-15T00:58:22.802Z,0.65
2023-05-15T01:00:51.157Z,0.47
2023-05-15T01:03:18.431Z,0.40
2023-05-15T01:05:46.638Z,0.45
2023-05-15T01:08:23.693Z,0.35
2023-05-15T01:10:52.076Z,3.63
2023-05-15T01:13:23.472Z,0.60
2023-05-15T01:15:51.040Z,0.50
2023-05-15T01:18:18.521Z,0.40
2023-05-15T01:20:48.439Z,0.40
2023-05-15T01:23:47.275Z,0.30
2023-05-15T01:26:28.341Z,0.40
2023-05-15T01:29:30.393Z,0.45
2023-05-15T01:32:09.235Z,0.20
2023-05-15T01:38:57.608Z,0.20
2023-05-15T01:41:28.826Z,0.30
2023-05-15T01:44:32.460Z,0.40
2023-05-15T01:47:01.897Z,0.43
2023-05-15T01:49:30.980Z,0.73
2023-05-15T01:52:05.870Z,0.30
2023-05-15T01:57:00.741Z,0.30
2023-05-15T01:59:29.253Z,0.30
2023-05-15T02:02:00.028Z,0.82
2023-05-15T02:04:27.216Z,0.70
2023-05-15T02:06:55.973Z,0.30
2023-05-15T02:09:24.047Z,0.30
2023-05-15T02:11:51.498Z,0.20
2023-05-15T02:14:18.846Z,0.20
2023-05-15T02:16:46.884Z,0.73
2023-05-15T02:19:14.023Z,0.40
2023-05-15T02:21:40.750Z,0.20
2023-05-15T02:24:07.498Z,0.93
2023-05-15T02:26:34.181Z,0.40
2023-05-15T02:29:21.311Z,0.28
2023-05-15T02:32:01.818Z,0.30
2023-05-15T02:34:53.399Z,0.20
2023-05-15T02:37:28.137Z,0.40
2023-05-15T02:40:00.210Z,0.38
2023-05-15T02:42:28.266Z,0.40
2023-05-15T02:44:56.129Z,0.40
2023-05-15T02:47:24.222Z,0.40
2023-05-15T02:49:51.906Z,0.38
2023-05-15T02:52:18.547Z,0.47
2023-05-15T02:54:45.365Z,0.45
2023-05-15T02:57:12.105Z,0.60
2023-05-15T02:59:38.938Z,0.80
2023-05-15T03:02:06.123Z,0.68
2023-05-15T03:04:33.053Z,0.57
2023-05-15T03:06:59.820Z,0.50
2023-05-15T03:09:26.505Z,0.40
2023-05-15T03:11:53.282Z,0.60
2023-05-15T03:14:19.972Z,0.60
2023-05-15T03:16:46.757Z,1.13
2023-05-15T03:19:13.831Z,0.85
2023-05-15T03:21:40.567Z,0.90
2023-05-15T03:24:07.579Z,0.80
2023-05-15T03:26:34.330Z,1.35
2023-05-15T03:29:02.333Z,1.50
2023-05-15T03:31:29.207Z,1.25
2023-05-15T03:33:55.977Z,1.40
2023-05-15T03:36:22.816Z,1.60
2023-05-15T03:38:49.544Z,1.90
2023-05-15T03:41:16.302Z,1.75
2023-05-15T03:43:43.166Z,2.30
2023-05-15T03:46:09.905Z,2.05
2023-05-15T03:48:36.618Z,1.50
2023-05-15T03:51:04.000Z,1.15
2023-05-15T03:53:30.749Z,1.42
2023-05-15T03:55:57.483Z,1.60
2023-05-15T03:58:24.290Z,1.55
2023-05-15T04:00:51.143Z,1.50
2023-05-15T04:03:19.257Z,1.80
2023-05-15T04:05:50.150Z,1.38
2023-05-15T04:08:17.552Z,1.40
2023-05-15T04:10:44.376Z,2.28
2023-05-15T04:13:11.024Z,1.80
2023-05-15T04:15:37.985Z,1.92
2023-05-15T04:18:05.072Z,1.90
2023-05-15T04:20:32.361Z,1.70
2023-05-15T04:22:59.094Z,1.20
2023-05-15T04:25:26.325Z,0.95
2023-05-15T04:27:53.724Z,0.93
2023-05-15T04:30:20.827Z,1.05
2023-05-15T04:32:47.955Z,1.05
2023-05-15T04:35:18.001Z,1.27
2023-05-15T04:37:47.705Z,1.17
2023-05-15T04:40:18.437Z,1.20
2023-05-15T04:42:45.189Z,1.15
2023-05-15T04:45:11.992Z,1.33
2023-05-15T04:47:41.414Z,1.38
2023-05-15T04:50:09.283Z,1.20
2023-05-15T04:52:36.032Z,0.90
2023-05-15T04:55:02.813Z,1.00
2023-05-15T04:57:30.496Z,0.80
2023-05-15T04:59:58.342Z,1.02
2023-05-15T05:02:25.552Z,0.90
2023-05-15T05:04:52.780Z,0.95
2023-05-15T05:07:19.573Z,1.30
2023-05-15T05:09:46.309Z,1.45
2023-05-15T05:12:13.216Z,1.60
2023-05-15T05:14:42.334Z,1.70
2023-05-15T05:17:09.460Z,1.50
2023-05-15T05:19:36.198Z,1.10
2023-05-15T05:22:05.727Z,1.10
2023-05-15T05:24:32.850Z,0.80
2023-05-15T05:27:00.028Z,1.30
2023-05-15T05:29:26.728Z,0.80
2023-05-15T05:31:53.756Z,0.80
2023-05-15T05:34:20.696Z,1.00
2023-05-15T05:36:47.677Z,0.90
2023-05-15T05:39:16.329Z,1.00
2023-05-15T05:41:43.935Z,0.70
2023-05-15T05:44:10.685Z,0.70
2023-05-15T05:46:37.389Z,0.80
2023-05-15T05:49:04.229Z,0.80
2023-05-15T05:51:31.820Z,0.43
2023-05-15T05:53:58.543Z,0.80
2023-05-15T05:56:26.872Z,0.60
2023-05-15T05:58:53.921Z,0.65
2023-05-15T06:01:21.222Z,0.60
2023-05-15T06:03:48.284Z,0.82
2023-05-15T06:06:15.021Z,0.90
2023-05-15T06:08:41.757Z,0.90
2023-05-15T06:11:08.447Z,0.88
2023-05-15T06:13:35.213Z,0.82
2023-05-15T06:16:02.018Z,0.75
2023-05-15T06:18:28.905Z,0.80
2023-05-15T06:20:55.833Z,1.08
2023-05-15T06:23:24.317Z,0.80
2023-05-15T06:25:51.335Z,0.90
2023-05-15T06:28:18.321Z,0.80
2023-05-15T06:30:44.968Z,0.80
2023-05-15T06:33:13.148Z,0.95
2023-05-15T06:35:40.101Z,0.82
2023-05-15T06:38:06.832Z,0.90
2023-05-15T06:40:33.556Z,0.80
2023-05-15T06:43:00.268Z,0.82
2023-05-15T06:45:27.861Z,1.00
2023-05-15T06:47:54.907Z,0.70
2023-05-15T06:50:21.837Z,1.00
2023-05-15T06:52:48.583Z,0.90
2023-05-15T06:55:15.352Z,1.38
2023-05-15T06:57:42.039Z,1.05
2023-05-15T07:00:09.231Z,0.68
2023-05-15T07:02:36.143Z,1.00
2023-05-15T07:05:03.357Z,0.98
2023-05-15T07:07:30.171Z,0.95
2023-05-15T07:09:56.858Z,0.90
2023-05-15T07:12:23.639Z,0.85
2023-05-15T07:14:50.382Z,0.50
2023-05-15T07:17:17.263Z,0.60
2023-05-15T07:19:44.721Z,0.45
2023-05-15T07:22:11.395Z,0.30
2023-05-15T07:24:40.436Z,0.30
2023-05-15T07:27:07.834Z,0.20
2023-05-15T07:29:34.613Z,0.50
2023-05-15T07:32:01.500Z,0.30
2023-05-15T07:34:28.599Z,0.35
2023-05-15T07:37:00.257Z,0.40
2023-05-15T07:39:27.138Z,0.30
2023-05-15T07:41:53.879Z,0.20
2023-05-15T07:44:20.561Z,0.40
2023-05-15T07:46:48.583Z,0.10
2023-05-15T07:49:15.405Z,0.55
2023-05-15T07:51:42.880Z,0.10
2023-05-15T07:54:09.595Z,0.20
2023-05-15T07:56:36.271Z,0.30
2023-05-15T07:59:03.196Z,1.05
2023-05-15T08:01:31.361Z,0.30
2023-05-15T08:03:59.579Z,0.20
2023-05-15T08:06:26.628Z,0.30
2023-05-15T08:08:53.534Z,0.15
2023-05-15T08:11:28.658Z,0.10
2023-05-15T08:13:57.354Z,0.22
2023-05-15T08:16:31.842Z,0.30
2023-05-15T08:19:02.202Z,0.20
2023-05-15T08:21:29.980Z,0.17
2023-05-15T08:24:04.122Z,0.10
2023-05-15T08:26:33.505Z,0.20
2023-05-15T08:29:03.727Z,0.20
2023-05-15T08:31:30.818Z,0.17
2023-05-15T08:33:57.518Z,0.10
2023-05-15T08:36:26.399Z,0.20
2023-05-15T08:38:56.970Z,0.20
2023-05-15T08:41:39.877Z,0.20
2023-05-15T08:44:09.693Z,0.30
2023-05-15T08:46:36.612Z,0.10
2023-05-15T08:49:15.717Z,0.20
2023-05-15T08:51:51.713Z,0.40
2023-05-15T08:54:25.510Z,0.10
2023-05-15T08:56:59.662Z,0.30
2023-05-15T08:59:27.879Z,0.30
2023-05-15T09:01:58.901Z,0.10
2023-05-15T09:04:29.092Z,0.10
2023-05-15T09:07:00.167Z,0.15
2023-05-15T09:17:02.775Z,0.20
2023-05-15T09:23:29.924Z,0.17
2023-05-15T09:26:07.515Z,0.20
2023-05-15T10:16:18.402Z,0.10
2023-05-15T10:29:07.504Z,0.15
2023-05-15T10:47:48.592Z,0.20
2023-05-15T10:50:27.821Z,0.30
2023-05-15T10:57:22.646Z,0.10
2023-05-15T11:00:34.030Z,0.20
2023-05-15T11:10:44.936Z,0.20
2023-05-15T11:13:12.177Z,0.40
2023-05-15T11:15:43.551Z,0.17
2023-05-15T11:18:10.775Z,0.20
2023-05-15T11:20:43.157Z,0.10
2023-05-15T11:23:09.885Z,0.25
2023-05-15T11:25:37.281Z,0.15
2023-05-15T11:28:05.168Z,0.28
2023-05-15T11:30:38.584Z,0.10
2023-05-15T11:33:09.085Z,0.55
2023-05-15T11:35:46.653Z,0.20
2023-05-15T11:38:17.258Z,0.20
2023-05-15T11:40:43.941Z,0.30
2023-05-15T11:43:20.819Z,0.20
2023-05-15T11:46:08.530Z,0.20
2023-05-15T11:48:48.013Z,0.22
2023-05-15T11:51:21.504Z,0.15
2023-05-15T11:53:53.160Z,0.20
2023-05-15T11:56:21.812Z,0.50
2023-05-15T11:58:57.075Z,0.28
2023-05-15T12:01:23.950Z,0.20
2023-05-15T12:03:52.319Z,0.20
2023-05-15T12:06:19.598Z,0.30
2023-05-15T12:08:56.294Z,0.13
2023-05-15T12:11:24.691Z,0.20
2023-05-15T12:13:53.987Z,0.20
2023-05-15T12:16:27.761Z,0.20
2023-05-15T12:18:57.378Z,0.10
2023-05-15T12:21:26.674Z,0.20
2023-05-15T12:24:06.485Z,0.22
2023-05-15T12:26:35.200Z,0.15
2023-05-15T12:29:02.238Z,0.30
2023-05-15T12:31:29.536Z,0.20
2023-05-15T12:33:56.985Z,0.30
2023-05-15T12:36:23.678Z,0.20
2023-05-15T12:38:50.881Z,0.20
2023-05-15T12:41:19.989Z,0.30
2023-05-15T12:43:46.729Z,0.50
2023-05-15T12:46:14.850Z,0.20
2023-05-15T12:48:42.041Z,0.55
2023-05-15T12:51:09.155Z,0.38
2023-05-15T12:53:39.633Z,0.30
2023-05-15T12:56:07.477Z,0.20
2023-05-15T12:58:34.507Z,0.22
2023-05-15T13:01:03.327Z,0.30
2023-05-15T13:03:30.697Z,0.30
2023-05-15T13:05:57.437Z,0.63
2023-05-15T13:08:24.254Z,0.25
2023-05-15T13:10:57.720Z,0.20
2023-05-15T13:13:24.617Z,0.30
2023-05-15T13:15:51.432Z,0.20
2023-05-15T13:18:18.625Z,0.20
2023-05-15T13:20:46.913Z,0.20
2023-05-15T13:23:16.255Z,0.35
2023-05-15T13:25:43.406Z,0.20
2023-05-15T13:28:11.105Z,0.10
2023-05-15T13:30:42.290Z,0.30
2023-05-15T13:33:12.079Z,0.20
2023-05-15T13:35:40.071Z,0.10
2023-05-15T13:38:10.372Z,0.30
2023-05-15T13:40:38.350Z,0.20
2023-05-15T13:43:08.306Z,0.30
2023-05-15T13:45:35.131Z,0.20
2023-05-15T13:48:01.972Z,0.10
2023-05-15T13:50:28.870Z,0.20
2023-05-15T13:52:56.037Z,0.10
2023-05-15T13:55:23.311Z,0.10
2023-05-15T13:57:50.126Z,0.10
2023-05-15T14:00:17.414Z,0.10
2023-05-15T14:02:44.923Z,0.20
2023-05-15T14:05:13.600Z,0.10
2023-05-15T14:07:41.480Z,0.30
2023-05-15T14:10:08.688Z,0.10
2023-05-15T14:12:36.138Z,0.10
2023-05-15T14:15:02.881Z,0.10
2023-05-15T14:17:29.611Z,0.20
2023-05-15T14:19:56.309Z,0.17
2023-05-15T14:22:25.042Z,0.13
2023-05-15T14:24:53.247Z,0.20
2023-05-15T14:27:20.821Z,0.20
2023-05-15T14:29:49.155Z,0.10
2023-05-15T14:32:16.857Z,0.30
2023-05-15T14:34:43.943Z,0.28
2023-05-15T14:37:10.752Z,0.20
2023-05-15T14:39:37.731Z,0.20
2023-05-15T14:42:05.033Z,0.10
2023-05-15T14:44:32.205Z,0.20
2023-05-15T14:47:06.851Z,0.20
2023-05-15T14:49:34.268Z,0.17
2023-05-15T14:52:00.912Z,0.20
2023-05-15T14:54:27.543Z,0.30
2023-05-15T14:56:55.718Z,0.20
2023-05-15T14:59:25.197Z,0.22
2023-05-15T15:01:51.855Z,0.28
2023-05-15T15:04:18.590Z,0.10
2023-05-15T15:06:47.366Z,0.30
2023-05-15T15:09:14.047Z,0.20
2023-05-15T15:11:40.706Z,0.22
2023-05-15T15:14:07.356Z,0.10
2023-05-15T15:16:34.203Z,0.10
2023-05-15T15:19:00.932Z,0.20
2023-05-15T15:21:27.819Z,0.30
2023-05-15T15:23:55.219Z,0.30
2023-05-15T15:26:21.896Z,0.30
2023-05-15T15:28:48.658Z,0.28
2023-05-15T15:31:15.815Z,0.20
2023-05-15T15:33:42.648Z,0.38
2023-05-15T15:36:09.324Z,0.20
2023-05-15T15:38:36.152Z,0.30
2023-05-15T15:41:03.784Z,0.20
2023-05-15T15:43:30.391Z,0.20
2023-05-15T15:45:57.027Z,0.25
2023-05-15T15:48:23.694Z,0.30
2023-05-15T15:50:52.145Z,0.20
2023-05-15T15:53:18.879Z,0.28
2023-05-15T15:55:47.140Z,0.20
2023-05-15T15:58:14.644Z,0.30
2023-05-15T16:00:41.435Z,0.50
2023-05-15T16:03:08.248Z,0.30
2023-05-15T16:05:35.049Z,0.35
2023-05-15T16:08:01.664Z,0.30
2023-05-15T16:10:28.509Z,0.30
2023-05-15T16:12:55.509Z,0.45
2023-05-15T16:15:23.691Z,0.30
2023-05-15T16:17:53.550Z,0.40
2023-05-15T16:20:21.116Z,0.50
2023-05-15T16:22:47.838Z,0.50
2023-05-15T16:25:14.505Z,0.47
2023-05-15T16:27:41.111Z,0.73
2023-05-15T16:30:09.364Z,0.38
2023-05-15T16:32:36.313Z,0.50
2023-05-15T16:35:03.617Z,0.60
2023-05-15T16:37:30.269Z,0.60
2023-05-15T16:39:56.945Z,0.60
2023-05-15T16:42:23.574Z,0.50
2023-05-15T16:44:50.303Z,0.50
2023-05-15T16:47:17.005Z,0.60
2023-05-15T16:49:45.283Z,0.80
2023-05-15T16:52:13.037Z,0.60
2023-05-15T16:54:41.914Z,0.70
2023-05-15T16:57:08.493Z,0.80
2023-05-15T16:59:35.170Z,0.88
2023-05-15T17:02:01.944Z,0.80
2023-05-15T17:04:31.450Z,0.70
2023-05-15T17:06:59.502Z,0.80
2023-05-15T17:09:26.446Z,0.63
2023-05-15T17:11:53.071Z,0.50
2023-05-15T17:14:19.815Z,0.80
2023-05-15T17:16:46.441Z,0.93
2023-05-15T17:19:13.330Z,1.33
2023-05-15T17:21:40.047Z,0.73
2023-05-15T17:24:06.840Z,0.80
2023-05-15T17:26:33.491Z,1.20
2023-05-15T17:29:00.342Z,0.98
2023-05-15T17:31:29.215Z,0.88
2023-05-15T17:33:55.911Z,0.85
2023-05-15T17:36:22.463Z,1.05
2023-05-15T17:38:49.126Z,0.93
2023-05-15T17:41:15.874Z,1.00
2023-05-15T17:43:42.502Z,1.10
2023-05-15T17:46:09.190Z,1.00
2023-05-15T17:48:36.277Z,0.77
2023-05-15T17:51:02.927Z,0.70
2023-05-15T17:53:29.613Z,0.88
2023-05-15T17:55:56.396Z,0.93
2023-05-15T17:58:22.998Z,0.98
2023-05-15T18:00:51.754Z,1.08
2023-05-15T18:03:18.496Z,0.95
2023-05-15T18:05:47.091Z,0.90
2023-05-15T18:08:14.395Z,1.05
2023-05-15T18:10:41.028Z,1.08
2023-05-15T18:13:07.816Z,1.33
2023-05-15T18:15:35.398Z,1.00
2023-05-15T18:18:02.760Z,1.30
2023-05-15T18:20:29.907Z,1.20
2023-05-15T18:22:56.603Z,1.38
2023-05-15T18:25:23.310Z,1.17
2023-05-15T18:27:50.016Z,1.40
2023-05-15T18:30:16.756Z,1.50
2023-05-15T18:32:43.518Z,1.40
2023-05-15T18:35:10.851Z,1.40
2023-05-15T18:37:37.526Z,1.30
2023-05-15T18:40:05.378Z,1.42
2023-05-15T18:42:32.053Z,1.48
2023-05-15T18:44:58.721Z,1.45
2023-05-15T18:47:25.441Z,1.50
2023-05-15T18:49:52.103Z,1.45
2023-05-15T18:52:19.029Z,1.70
2023-05-15T18:54:45.675Z,1.80
2023-05-15T18:57:14.357Z,1.50
2023-05-15T18:59:41.830Z,1.42
2023-05-15T19:02:09.741Z,1.20
2023-05-15T19:04:36.690Z,1.40
2023-05-15T19:07:03.381Z,1.42
2023-05-15T19:09:30.075Z,1.35
2023-05-15T19:11:56.816Z,1.30
2023-05-15T19:14:23.469Z,1.20
2023-05-15T19:16:50.171Z,2.55
2023-05-15T19:19:18.209Z,1.60
2023-05-15T19:21:44.995Z,1.30
2023-05-15T19:24:11.674Z,1.60
2023-05-15T19:26:38.323Z,1.50
2023-05-15T19:29:05.106Z,1.45
2023-05-15T19:31:32.544Z,1.65
2023-05-15T19:34:00.285Z,1.50
2023-05-15T19:36:27.208Z,1.60
2023-05-15T19:38:53.857Z,1.75
2023-05-15T19:41:21.673Z,1.73
2023-05-15T19:43:50.772Z,1.70
2023-05-15T19:46:18.168Z,1.85
2023-05-15T19:48:45.110Z,1.70
2023-05-15T19:51:12.165Z,1.80
2023-05-15T19:53:38.808Z,2.00
2023-05-15T19:56:05.988Z,1.70
2023-05-15T19:58:32.792Z,1.77
2023-05-15T20:00:59.431Z,1.80
2023-05-15T20:03:32.673Z,2.10
2023-05-15T20:06:01.679Z,1.70
2023-05-15T20:08:29.059Z,1.75
2023-05-15T20:10:56.105Z,1.77
2023-05-15T20:13:23.355Z,1.55
2023-05-15T20:15:58.059Z,1.60
2023-05-15T20:18:25.944Z,1.75
2023-05-15T20:20:55.847Z,1.50
2023-05-15T20:23:22.579Z,1.55
2023-05-15T20:25:50.369Z,1.70
2023-05-15T20:28:17.892Z,1.42
2023-05-15T20:30:47.479Z,1.70
2023-05-15T20:33:14.441Z,1.85
2023-05-15T20:35:42.827Z,2.00
2023-05-15T20:38:10.589Z,2.00
2023-05-15T20:40:37.718Z,1.95
2023-05-15T20:43:04.791Z,1.67
2023-05-15T20:45:32.443Z,1.50
2023-05-15T20:47:59.397Z,1.70
2023-05-15T20:50:26.642Z,1.73
2023-05-15T20:52:53.571Z,1.90
2023-05-15T20:55:21.700Z,2.20
2023-05-15T20:57:50.380Z,2.13
2023-05-15T21:00:18.170Z,1.75
2023-05-15T21:02:46.558Z,1.70
2023-05-15T21:05:13.648Z,2.03
2023-05-15T21:07:40.629Z,1.70
2023-05-15T21:10:07.986Z,1.70
2023-05-15T21:12:34.730Z,1.55
2023-05-15T21:15:02.456Z,1.77
2023-05-15T21:17:29.106Z,1.90
2023-05-15T21:19:57.687Z,1.98
2023-05-15T21:22:24.904Z,2.17
2023-05-15T21:24:51.844Z,1.80
2023-05-15T21:27:18.598Z,1.75
2023-05-15T21:29:45.230Z,1.83
2023-05-15T21:32:11.968Z,1.70
2023-05-15T21:34:39.356Z,1.83
2023-05-15T21:37:06.051Z,1.88
2023-05-15T21:39:32.685Z,1.88
2023-05-15T21:41:59.301Z,1.67
2023-05-15T21:44:26.006Z,2.08
2023-05-15T21:46:52.813Z,1.58
2023-05-15T21:49:19.536Z,1.70
2023-05-15T21:51:46.759Z,1.80
2023-05-15T21:54:13.502Z,1.85
2023-05-15T21:56:41.237Z,1.92
2023-05-15T21:59:08.212Z,1.77
2023-05-15T22:01:36.297Z,2.05
2023-05-15T22:04:03.161Z,1.80
2023-05-15T22:06:29.955Z,1.95
2023-05-15T22:08:57.581Z,1.80
2023-05-15T22:11:24.310Z,1.98
2023-05-15T22:13:51.116Z,1.88
2023-05-15T22:16:17.788Z,2.25
2023-05-15T22:18:45.045Z,1.85
2023-05-15T22:21:12.085Z,1.88
2023-05-15T22:23:38.707Z,2.30
2023-05-15T22:26:05.692Z,1.88
2023-05-15T22:28:32.317Z,1.95
2023-05-15T22:30:58.984Z,1.80
2023-05-15T22:33:25.797Z,1.98
2023-05-15T22:35:53.263Z,2.08
2023-05-15T22:38:20.560Z,1.70
2023-05-15T22:40:54.033Z,1.80
2023-05-15T22:43:22.574Z,1.75
2023-05-15T22:45:49.393Z,1.80
2023-05-15T22:48:16.060Z,1.92
2023-05-15T22:50:44.017Z,1.90
2023-05-15T22:53:10.710Z,2.00
2023-05-15T22:55:37.438Z,2.30
2023-05-15T22:58:04.178Z,1.80
2023-05-15T23:00:31.362Z,1.60
2023-05-15T23:02:58.182Z,1.85
2023-05-15T23:05:25.473Z,1.70
2023-05-15T23:07:52.997Z,2.03
2023-05-15T23:10:19.778Z,1.90
2023-05-15T23:12:46.802Z,1.50
2023-05-15T23:15:13.573Z,1.70
2023-05-15T23:17:40.560Z,1.80
2023-05-15T23:20:10.590Z,1.70
2023-05-15T23:22:37.340Z,1.95
2023-05-15T23:25:04.262Z,1.88
2023-05-15T23:27:30.935Z,2.05
2023-05-15T23:29:57.592Z,1.90
2023-05-15T23:32:24.361Z,1.70
2023-05-15T23:34:52.048Z,1.92
2023-05-15T23:37:18.943Z,1.92
2023-05-15T23:39:45.663Z,1.63
2023-05-15T23:42:12.567Z,1.60
2023-05-15T23:44:39.279Z,1.65
2023-05-15T23:47:06.656Z,1.65
2023-05-15T23:49:33.687Z,1.45
2023-05-15T23:52:00.660Z,1.55
2023-05-15T23:54:27.949Z,1.70
2023-05-15T23:56:54.846Z,1.80
2023-05-15T23:59:21.619Z,1.60
